createdAt,value
2023-04-16T00:00:19.032Z,50.66
2023-04-16T00:02:45.501Z,50.45
2023-04-16T00:05:12.008Z,50.35
2023-04-16T00:07:38.432Z,50.72
2023-04-16T00:10:05.693Z,50.69
2023-04-16T00:12:32.106Z,50.58
2023-04-16T00:14:58.969Z,50.71
2023-04-16T00:17:25.689Z,50.90
2023-04-16T00:19:52.125Z,50.65
2023-04-16T00:22:18.509Z,50.68
2023-04-16T00:24:44.869Z,50.74
2023-04-16T00:27:11.313Z,50.97
2023-04-16T00:29:37.705Z,50.85
2023-04-16T00:32:04.342Z,50.83
2023-04-16T00:34:31.137Z,50.88
2023-04-16T00:36:57.669Z,50.86
2023-04-16T00:39:24.131Z,50.97
2023-04-16T00:41:50.519Z,50.89
2023-04-16T00:44:16.829Z,51.02
2023-04-16T00:46:44.114Z,51.08
2023-04-16T00:49:10.892Z,50.85
2023-04-16T00:51:37.555Z,50.86
2023-04-16T00:54:04.448Z,50.74
2023-04-16T00:56:31.121Z,50.95
2023-04-16T00:58:57.519Z,50.71
2023-04-16T01:01:24.012Z,50.77
2023-04-16T01:03:50.945Z,50.84
2023-04-16T01:06:18.392Z,51.09
2023-04-16T01:08:45.307Z,50.96
2023-04-16T01:11:12.106Z,51.14
2023-04-16T01:13:39.510Z,51.18
2023-04-16T01:16:07.925Z,51.22
2023-04-16T01:18:35.562Z,51.15
2023-04-16T01:21:01.951Z,51.09
2023-04-16T01:23:28.392Z,51.04
2023-04-16T01:25:54.818Z,51.07
2023-04-16T01:28:21.382Z,51.03
2023-04-16T01:30:48.040Z,51.35
2023-04-16T01:33:15.557Z,51.28
2023-04-16T01:35:42.222Z,51.40
2023-04-16T01:38:09.453Z,51.37
2023-04-16T01:40:36.569Z,51.15
2023-04-16T01:43:03.624Z,51.29
2023-04-16T01:45:32.267Z,51.63
2023-04-16T01:47:58.753Z,51.24
2023-04-16T01:50:25.100Z,51.35
2023-04-16T01:52:51.447Z,51.29
2023-04-16T01:55:18.197Z,51.07
2023-04-16T01:57:44.541Z,51.45
2023-04-16T02:00:11.566Z,51.29
2023-04-16T02:02:38.428Z,51.46
2023-04-16T02:05:05.540Z,51.25
2023-04-16T02:07:31.942Z,51.16
2023-04-16T02:09:58.591Z,51.32
2023-04-16T02:12:25.923Z,51.58
2023-04-16T02:14:52.354Z,51.40
2023-04-16T02:17:19.024Z,51.45
2023-04-16T02:19:45.414Z,51.41
2023-04-16T02:22:12.077Z,51.25
2023-04-16T02:24:38.379Z,51.51
2023-04-16T02:27:04.718Z,51.39
2023-04-16T02:29:31.804Z,51.19
2023-04-16T02:31:59.832Z,51.34
2023-04-16T02:34:26.196Z,51.33
2023-04-16T02:36:52.798Z,51.52
2023-04-16T02:39:19.387Z,51.28
2023-04-16T02:41:45.961Z,51.32
2023-04-16T02:44:12.545Z,51.44
2023-04-16T02:46:38.926Z,51.38
2023-04-16T02:49:05.475Z,51.27
2023-04-16T02:51:33.141Z,51.27
2023-04-16T02:53:59.717Z,51.39
2023-04-16T02:56:26.169Z,51.20
2023-04-16T02:58:52.773Z,51.22
2023-04-16T03:01:19.151Z,51.24
2023-04-16T03:03:45.809Z,51.19
2023-04-16T03:06:12.909Z,51.07
2023-04-16T03:08:39.266Z,51.07
2023-04-16T03:11:05.702Z,51.35
2023-04-16T03:13:32.276Z,51.22
2023-04-16T03:15:58.878Z,51.24
2023-04-16T03:18:25.400Z,51.23
2023-04-16T03:20:53.312Z,51.04
2023-04-16T03:23:20.165Z,50.92
2023-04-16T03:25:48.156Z,51.09
2023-04-16T03:28:15.185Z,50.99
2023-04-16T03:30:41.550Z,50.98
2023-04-16T03:33:08.154Z,51.14
2023-04-16T03:35:34.630Z,50.91
2023-04-16T03:38:01.257Z,50.87
2023-04-16T03:40:27.874Z,50.99
2023-04-16T03:42:54.188Z,51.13
2023-04-16T03:45:20.504Z,50.98
2023-04-16T03:47:52.321Z,51.05
2023-04-16T03:50:19.474Z,51.31
2023-04-16T03:52:46.942Z,51.17
2023-04-16T03:55:13.826Z,51.12
2023-04-16T03:57:40.656Z,51.04
2023-04-16T04:00:07.717Z,51.05
2023-04-16T04:02:34.402Z,51.15
2023-04-16T04:05:01.265Z,51.19
2023-04-16T04:07:27.660Z,51.32
2023-04-16T04:09:54.153Z,51.16
2023-04-16T04:12:20.537Z,50.95
2023-04-16T04:14:46.870Z,51.18
2023-04-16T04:17:13.460Z,51.25
2023-04-16T04:19:47.253Z,51.27
2023-04-16T04:22:21.205Z,50.98
2023-04-16T04:24:47.553Z,51.17
2023-04-16T04:27:13.927Z,51.22
2023-04-16T04:29:40.568Z,51.11
2023-04-16T04:32:07.078Z,51.27
2023-04-16T04:34:33.701Z,51.33
2023-04-16T04:37:00.050Z,51.18
2023-04-16T04:39:27.100Z,51.15
2023-04-16T04:41:53.468Z,50.86
2023-04-16T04:44:19.790Z,51.15
2023-04-16T04:46:46.149Z,50.90
2023-04-16T04:49:12.691Z,50.95
2023-04-16T04:51:39.351Z,50.96
2023-04-16T04:54:06.022Z,51.05
2023-04-16T04:56:32.392Z,51.11
2023-04-16T04:58:58.727Z,51.06
2023-04-16T05:01:25.413Z,50.93
2023-04-16T05:03:52.002Z,50.90
2023-04-16T05:06:18.561Z,50.98
2023-04-16T05:08:45.157Z,50.77
2023-04-16T05:11:11.548Z,50.75
2023-04-16T05:13:38.044Z,50.89
2023-04-16T05:16:04.776Z,50.91
2023-04-16T05:18:32.578Z,50.68
2023-04-16T05:20:59.184Z,51.19
2023-04-16T05:23:25.752Z,50.61
2023-04-16T05:25:52.081Z,50.76
2023-04-16T05:28:18.508Z,50.75
2023-04-16T05:30:44.848Z,50.57
2023-04-16T05:33:11.236Z,50.37
2023-04-16T05:35:37.685Z,50.50
2023-04-16T05:38:06.622Z,50.60
2023-04-16T05:40:33.187Z,50.60
2023-04-16T05:42:59.525Z,50.67
2023-04-16T05:45:27.967Z,50.65
2023-04-16T05:47:54.866Z,50.36
2023-04-16T05:50:21.624Z,50.67
2023-04-16T05:52:47.951Z,50.56
2023-04-16T05:55:14.421Z,50.29
2023-04-16T05:57:40.817Z,50.35
2023-04-16T06:00:08.030Z,50.56
2023-04-16T06:02:34.791Z,50.31
2023-04-16T06:05:01.505Z,50.54
2023-04-16T06:07:28.113Z,50.60
2023-04-16T06:09:54.729Z,50.27
2023-04-16T06:12:21.072Z,50.10
2023-04-16T06:14:47.532Z,50.04
2023-04-16T06:17:13.925Z,50.11
2023-04-16T06:19:40.951Z,49.95
2023-04-16T06:22:07.383Z,49.77
2023-04-16T06:24:34.704Z,50.17
2023-04-16T06:27:01.300Z,50.13
2023-04-16T06:29:33.688Z,49.94
2023-04-16T06:32:07.379Z,50.04
2023-04-16T06:34:33.834Z,49.93
2023-04-16T06:37:00.311Z,49.87
2023-04-16T06:39:26.879Z,49.83
2023-04-16T06:41:53.445Z,50.11
2023-04-16T06:44:19.809Z,50.02
2023-04-16T06:46:46.203Z,49.92
2023-04-16T06:49:12.801Z,50.14
2023-04-16T06:51:39.134Z,49.82
2023-04-16T06:54:05.508Z,50.22
2023-04-16T06:56:32.287Z,49.73
2023-04-16T06:59:00.795Z,49.89
2023-04-16T07:01:27.604Z,49.88
2023-04-16T07:03:54.564Z,49.33
2023-04-16T07:06:21.333Z,49.50
2023-04-16T07:08:47.945Z,49.71
2023-04-16T07:11:14.500Z,49.50
2023-04-16T07:13:40.997Z,49.58
2023-04-16T07:16:08.046Z,49.72
2023-04-16T07:18:34.400Z,49.77
2023-04-16T07:21:00.966Z,49.89
2023-04-16T07:23:27.880Z,49.80
2023-04-16T07:25:54.257Z,49.90
2023-04-16T07:28:20.760Z,49.93
2023-04-16T07:30:47.188Z,49.83
2023-04-16T07:33:13.843Z,49.72
2023-04-16T07:35:40.185Z,49.61
2023-04-16T07:38:06.523Z,49.30
2023-04-16T07:40:33.096Z,49.09
2023-04-16T07:42:59.427Z,48.76
2023-04-16T07:45:25.786Z,48.80
2023-04-16T07:47:52.161Z,49.29
2023-04-16T07:50:19.445Z,49.00
2023-04-16T07:52:47.282Z,49.15
2023-04-16T07:55:13.642Z,49.27
2023-04-16T07:57:41.151Z,49.21
2023-04-16T08:00:08.638Z,49.11
2023-04-16T08:02:35.384Z,49.24
2023-04-16T08:05:02.032Z,49.00
2023-04-16T08:07:28.634Z,49.14
2023-04-16T08:09:55.055Z,48.98
2023-04-16T08:12:21.686Z,49.05
2023-04-16T08:14:48.444Z,48.84
2023-04-16T08:17:15.469Z,49.10
2023-04-16T08:19:43.739Z,48.93
2023-04-16T08:22:10.664Z,49.35
2023-04-16T08:24:37.270Z,49.25
2023-04-16T08:27:17.275Z,49.16
2023-04-16T08:29:45.226Z,49.32
2023-04-16T08:32:11.853Z,48.91
2023-04-16T08:34:38.417Z,49.21
2023-04-16T08:37:04.984Z,49.07
2023-04-16T08:39:31.592Z,49.00
2023-04-16T08:41:59.177Z,49.34
2023-04-16T08:44:27.678Z,49.14
2023-04-16T08:46:59.062Z,49.37
2023-04-16T08:49:26.708Z,49.50
2023-04-16T08:51:55.086Z,49.28
2023-04-16T08:54:46.473Z,49.11
2023-04-16T08:57:27.043Z,49.20
2023-04-16T08:59:55.966Z,49.08
2023-04-16T09:02:23.068Z,48.71
2023-04-16T09:04:51.176Z,48.79
2023-04-16T09:07:20.785Z,48.96
2023-04-16T09:09:49.988Z,48.53
2023-04-16T09:12:17.473Z,48.26
2023-04-16T09:14:49.325Z,48.54
2023-04-16T09:17:16.569Z,48.87
2023-04-16T09:19:43.139Z,48.29
2023-04-16T09:22:09.592Z,48.36
2023-04-16T09:24:38.700Z,48.77
2023-04-16T09:27:05.692Z,48.30
2023-04-16T09:29:39.567Z,48.70
2023-04-16T09:32:08.287Z,48.75
2023-04-16T09:34:53.541Z,48.46
2023-04-16T09:37:20.427Z,48.68
2023-04-16T09:39:54.885Z,48.92
2023-04-16T09:42:29.228Z,49.25
2023-04-16T09:44:59.469Z,48.54
2023-04-16T09:47:39.650Z,48.89
2023-04-16T09:50:07.161Z,48.60
2023-04-16T09:52:37.159Z,48.67
2023-04-16T09:55:03.727Z,48.66
2023-04-16T09:57:30.669Z,48.56
2023-04-16T10:00:05.717Z,47.84
2023-04-16T10:02:33.149Z,48.01
2023-04-16T10:05:01.826Z,47.97
2023-04-16T10:07:29.207Z,48.19
2023-04-16T10:09:56.194Z,47.83
2023-04-16T10:12:22.514Z,48.05
2023-04-16T10:14:50.447Z,47.42
2023-04-16T10:17:17.546Z,47.54
2023-04-16T10:19:44.514Z,47.45
2023-04-16T10:22:11.632Z,48.06
2023-04-16T10:24:38.708Z,47.86
2023-04-16T10:27:05.126Z,48.07
2023-04-16T10:29:32.724Z,47.92
2023-04-16T10:31:59.959Z,47.28
2023-04-16T10:34:27.184Z,47.00
2023-04-16T10:36:54.674Z,47.55
2023-04-16T10:39:23.512Z,47.23
2023-04-16T10:41:50.685Z,47.18
2023-04-16T10:44:19.224Z,46.74
2023-04-16T10:46:51.672Z,47.00
2023-04-16T10:49:27.337Z,46.21
2023-04-16T10:52:09.644Z,46.11
2023-04-16T10:54:36.550Z,46.61
2023-04-16T10:57:05.292Z,46.50
2023-04-16T10:59:34.956Z,46.03
2023-04-16T11:02:06.876Z,46.47
2023-04-16T11:04:39.878Z,45.89
2023-04-16T11:07:16.564Z,45.95
2023-04-16T11:10:00.098Z,45.25
2023-04-16T11:12:32.652Z,45.44
2023-04-16T11:15:00.364Z,45.58
2023-04-16T11:17:39.128Z,44.91
2023-04-16T11:20:20.734Z,45.19
2023-04-16T11:22:49.005Z,45.54
2023-04-16T11:25:30.691Z,45.27
2023-04-16T11:27:58.980Z,46.13
2023-04-16T11:30:36.344Z,45.32
2023-04-16T11:33:08.425Z,45.63
2023-04-16T11:35:35.477Z,45.44
2023-04-16T11:38:02.213Z,45.33
2023-04-16T11:40:31.833Z,44.82
2023-04-16T11:43:04.932Z,44.48
2023-04-16T11:45:31.585Z,44.97
2023-04-16T11:47:58.021Z,44.91
2023-04-16T11:50:26.285Z,44.35
2023-04-16T11:52:55.540Z,44.16
2023-04-16T11:55:22.989Z,44.25
2023-04-16T11:57:50.105Z,44.07
2023-04-16T12:00:18.958Z,43.76
2023-04-16T12:02:53.324Z,43.81
2023-04-16T12:05:35.840Z,43.45
2023-04-16T12:08:07.447Z,44.01
2023-04-16T12:10:35.930Z,43.48
2023-04-16T12:13:15.762Z,42.91
2023-04-16T12:15:48.284Z,43.35
2023-04-16T12:18:18.484Z,43.57
2023-04-16T12:20:45.282Z,43.90
2023-04-16T12:23:23.264Z,43.43
2023-04-16T12:25:52.296Z,43.84
2023-04-16T12:28:33.708Z,43.35
2023-04-16T12:31:01.073Z,44.13
2023-04-16T12:33:27.878Z,44.25
2023-04-16T12:35:54.983Z,44.20
2023-04-16T12:38:24.077Z,44.12
2023-04-16T12:40:51.635Z,43.92
2023-04-16T12:43:21.756Z,43.52
2023-04-16T12:45:48.587Z,43.87
2023-04-16T12:48:14.918Z,43.41
2023-04-16T12:50:44.076Z,43.42
2023-04-16T12:53:10.413Z,43.02
2023-04-16T12:55:36.937Z,42.97
2023-04-16T12:58:03.606Z,42.75
2023-04-16T13:00:29.922Z,42.25
2023-04-16T13:02:56.370Z,42.18
2023-04-16T13:05:22.860Z,42.38
2023-04-16T13:07:49.287Z,42.22
2023-04-16T13:10:17.921Z,42.38
2023-04-16T13:12:44.153Z,42.87
2023-04-16T13:15:11.107Z,42.13
2023-04-16T13:17:37.552Z,42.26
2023-04-16T13:20:04.278Z,42.19
2023-04-16T13:22:30.817Z,42.06
2023-04-16T13:24:59.439Z,42.06
2023-04-16T13:27:25.824Z,42.47
2023-04-16T13:29:52.356Z,42.03
2023-04-16T13:32:19.162Z,42.06
2023-04-16T13:34:45.959Z,42.06
2023-04-16T13:37:12.332Z,41.85
2023-04-16T13:39:38.760Z,41.65
2023-04-16T13:42:05.528Z,41.68
2023-04-16T13:44:32.218Z,41.82
2023-04-16T13:46:58.611Z,41.78
2023-04-16T13:49:25.001Z,41.96
2023-04-16T13:51:51.339Z,41.83
2023-04-16T13:54:17.696Z,41.83
2023-04-16T13:56:44.379Z,41.54
2023-04-16T13:59:11.126Z,41.29
2023-04-16T14:01:37.835Z,41.21
2023-04-16T14:04:06.810Z,41.27
2023-04-16T14:06:34.706Z,41.10
2023-04-16T14:09:02.051Z,41.30
2023-04-16T14:11:28.632Z,41.37
2023-04-16T14:13:56.174Z,41.22
2023-04-16T14:16:23.206Z,41.30
2023-04-16T14:18:51.701Z,41.30
2023-04-16T14:21:18.285Z,41.44
2023-04-16T14:23:44.655Z,41.37
2023-04-16T14:26:11.253Z,41.28
2023-04-16T14:28:38.048Z,40.98
2023-04-16T14:31:04.600Z,41.36
2023-04-16T14:33:32.253Z,41.13
2023-04-16T14:36:00.074Z,41.26
2023-04-16T14:38:28.459Z,40.98
2023-04-16T14:40:55.036Z,41.15
2023-04-16T14:43:21.596Z,41.24
2023-04-16T14:45:48.218Z,41.36
2023-04-16T14:48:14.627Z,41.31
2023-04-16T14:50:43.849Z,41.18
2023-04-16T14:53:12.877Z,41.59
2023-04-16T14:55:39.726Z,41.51
2023-04-16T14:58:06.080Z,41.17
2023-04-16T15:00:34.628Z,41.22
2023-04-16T15:03:01.022Z,41.47
2023-04-16T15:05:27.609Z,41.27
2023-04-16T15:07:54.981Z,41.25
2023-04-16T15:10:21.418Z,41.20
2023-04-16T15:12:47.994Z,41.41
2023-04-16T15:15:14.743Z,41.28
2023-04-16T15:17:42.824Z,41.49
2023-04-16T15:20:09.612Z,41.51
2023-04-16T15:22:36.300Z,41.55
2023-04-16T15:25:03.196Z,41.38
2023-04-16T15:27:29.642Z,41.34
2023-04-16T15:29:56.632Z,41.22
2023-04-16T15:32:24.660Z,41.29
2023-04-16T15:34:51.689Z,41.24
2023-04-16T15:37:18.087Z,41.32
2023-04-16T15:39:46.062Z,41.29
2023-04-16T15:42:13.193Z,41.39
2023-04-16T15:44:40.285Z,41.37
2023-04-16T15:47:08.505Z,41.45
2023-04-16T15:49:35.470Z,41.30
2023-04-16T15:52:01.981Z,41.23
2023-04-16T15:54:29.408Z,40.85
2023-04-16T15:56:55.842Z,41.07
2023-04-16T15:59:22.246Z,41.32
2023-04-16T16:01:48.673Z,41.14
2023-04-16T16:04:15.104Z,40.95
2023-04-16T16:06:42.058Z,40.98
2023-04-16T16:09:09.101Z,41.23
2023-04-16T16:11:37.245Z,41.13
2023-04-16T16:14:06.560Z,40.97
2023-04-16T16:16:34.497Z,40.96
2023-04-16T16:19:01.152Z,40.89
2023-04-16T16:21:29.971Z,40.63
2023-04-16T16:23:57.124Z,40.75
2023-04-16T16:26:23.690Z,40.61
2023-04-16T16:28:50.110Z,40.52
2023-04-16T16:31:16.486Z,40.85
2023-04-16T16:33:42.866Z,40.80
2023-04-16T16:36:12.371Z,40.45
2023-04-16T16:38:40.925Z,40.73
2023-04-16T16:41:07.382Z,41.15
2023-04-16T16:43:36.701Z,40.59
2023-04-16T16:46:03.062Z,40.48
2023-04-16T16:48:29.624Z,40.68
2023-04-16T16:50:56.012Z,40.73
2023-04-16T16:53:22.384Z,40.86
2023-04-16T16:55:48.729Z,41.04
2023-04-16T16:58:15.376Z,41.04
2023-04-16T17:00:43.348Z,40.99
2023-04-16T17:03:09.910Z,41.04
2023-04-16T17:05:39.553Z,40.99
2023-04-16T17:08:08.017Z,41.07
2023-04-16T17:10:35.242Z,41.48
2023-04-16T17:13:01.566Z,41.28
2023-04-16T17:15:28.095Z,41.00
2023-04-16T17:17:54.429Z,41.17
2023-04-16T17:20:20.985Z,41.27
2023-04-16T17:22:47.494Z,41.43
2023-04-16T17:25:14.366Z,41.44
2023-04-16T17:27:40.766Z,41.37
2023-04-16T17:30:08.373Z,41.42
2023-04-16T17:32:35.238Z,41.33
2023-04-16T17:35:04.105Z,41.39
2023-04-16T17:37:30.984Z,41.45
2023-04-16T17:39:57.324Z,41.54
2023-04-16T17:42:24.535Z,41.54
2023-04-16T17:44:50.854Z,41.53
2023-04-16T17:47:17.202Z,41.51
2023-04-16T17:49:44.427Z,41.50
2023-04-16T17:52:11.063Z,41.55
2023-04-16T17:54:37.373Z,41.77
2023-04-16T17:57:03.919Z,41.65
2023-04-16T17:59:31.773Z,41.62
2023-04-16T18:01:58.496Z,41.57
2023-04-16T18:04:25.028Z,41.64
2023-04-16T18:06:51.573Z,41.88
2023-04-16T18:09:19.275Z,41.87
2023-04-16T18:11:45.627Z,41.84
2023-04-16T18:14:14.213Z,42.08
2023-04-16T18:16:41.968Z,42.25
2023-04-16T18:19:08.355Z,41.80
2023-04-16T18:21:35.628Z,42.09
2023-04-16T18:24:03.365Z,42.12
2023-04-16T18:26:30.110Z,42.13
2023-04-16T18:28:56.665Z,42.32
2023-04-16T18:31:23.181Z,42.12
2023-04-16T18:33:57.416Z,42.21
2023-04-16T18:36:26.520Z,42.41
2023-04-16T18:39:01.622Z,42.44
2023-04-16T18:41:40.897Z,42.47
2023-04-16T18:44:08.074Z,42.48
2023-04-16T18:46:34.657Z,42.63
2023-04-16T18:49:01.528Z,42.62
2023-04-16T18:51:27.911Z,42.67
2023-04-16T18:53:54.616Z,42.99
2023-04-16T18:56:21.160Z,42.98
2023-04-16T18:58:47.808Z,42.92
2023-04-16T19:01:16.309Z,42.96
2023-04-16T19:03:43.005Z,43.05
2023-04-16T19:06:09.365Z,43.33
2023-04-16T19:08:35.920Z,43.46
2023-04-16T19:11:02.618Z,43.44
2023-04-16T19:13:30.289Z,43.44
2023-04-16T19:15:59.337Z,43.25
2023-04-16T19:18:28.796Z,43.25
2023-04-16T19:21:00.132Z,43.46
2023-04-16T19:23:27.189Z,43.28
2023-04-16T19:25:53.526Z,43.18
2023-04-16T19:28:19.941Z,43.34
2023-04-16T19:30:50.021Z,43.45
2023-04-16T19:33:16.364Z,43.77
2023-04-16T19:35:43.152Z,43.65
2023-04-16T19:38:10.919Z,43.63
2023-04-16T19:40:38.239Z,43.74
2023-04-16T19:43:04.587Z,43.93
2023-04-16T19:45:31.628Z,44.25
2023-04-16T19:47:58.257Z,43.85
2023-04-16T19:50:24.829Z,44.05
2023-04-16T19:52:51.542Z,44.17
2023-04-16T19:55:18.883Z,43.93
2023-04-16T19:57:48.230Z,44.49
2023-04-16T20:00:15.035Z,44.10
2023-04-16T20:02:41.460Z,44.20
2023-04-16T20:05:09.640Z,44.46
2023-04-16T20:07:36.276Z,44.36
2023-04-16T20:10:02.952Z,44.54
2023-04-16T20:12:29.710Z,44.62
2023-04-16T20:14:56.093Z,44.69
2023-04-16T20:17:22.902Z,44.60
2023-04-16T20:19:49.492Z,45.13
2023-04-16T20:22:18.076Z,44.57
2023-04-16T20:24:47.863Z,45.24
2023-04-16T20:27:14.918Z,44.90
2023-04-16T20:29:41.750Z,45.27
2023-04-16T20:32:08.396Z,45.18
2023-04-16T20:34:34.849Z,45.69
2023-04-16T20:37:01.412Z,45.66
2023-04-16T20:39:28.013Z,45.56
2023-04-16T20:41:57.248Z,46.24
2023-04-16T20:44:26.432Z,46.28
2023-04-16T20:46:54.865Z,45.96
2023-04-16T20:49:21.500Z,46.81
2023-04-16T20:51:47.914Z,46.35
2023-04-16T20:54:14.338Z,46.64
2023-04-16T20:56:40.764Z,46.99
2023-04-16T20:59:07.119Z,46.83
2023-04-16T21:01:33.546Z,46.85
2023-04-16T21:04:00.439Z,46.62
2023-04-16T21:06:27.164Z,47.12
2023-04-16T21:08:53.720Z,46.94
2023-04-16T21:11:20.663Z,47.35
2023-04-16T21:13:47.358Z,47.23
2023-04-16T21:16:13.815Z,47.58
2023-04-16T21:18:40.368Z,47.69
2023-04-16T21:21:06.957Z,47.94
2023-04-16T21:23:33.685Z,48.04
2023-04-16T21:26:02.885Z,48.18
2023-04-16T21:28:29.602Z,48.01
2023-04-16T21:30:57.414Z,48.52
2023-04-16T21:33:23.844Z,47.87
2023-04-16T21:35:53.914Z,48.90
2023-04-16T21:38:21.708Z,48.14
2023-04-16T21:40:50.803Z,48.06
2023-04-16T21:43:17.816Z,47.92
2023-04-16T21:45:44.204Z,48.21
2023-04-16T21:48:10.889Z,48.29
2023-04-16T21:50:37.931Z,48.26
2023-04-16T21:53:06.271Z,48.44
2023-04-16T21:55:34.582Z,48.55
2023-04-16T21:58:01.170Z,48.26
2023-04-16T22:00:27.625Z,48.41
2023-04-16T22:02:55.953Z,48.69
2023-04-16T22:05:24.216Z,48.93
2023-04-16T22:07:50.771Z,47.98
2023-04-16T22:10:17.180Z,48.33
2023-04-16T22:12:45.583Z,48.25
2023-04-16T22:15:13.432Z,48.46
2023-04-16T22:17:40.703Z,48.25
2023-04-16T22:20:14.511Z,48.38
2023-04-16T22:22:41.993Z,48.51
2023-04-16T22:25:09.721Z,48.46
2023-04-16T22:27:36.732Z,48.66
2023-04-16T22:30:04.262Z,48.36
2023-04-16T22:32:30.877Z,48.14
2023-04-16T22:34:57.286Z,48.15
2023-04-16T22:37:23.851Z,48.25
2023-04-16T22:39:50.230Z,48.14
2023-04-16T22:42:16.829Z,48.45
2023-04-16T22:44:44.216Z,48.19
2023-04-16T22:47:10.790Z,48.48
2023-04-16T22:49:37.158Z,48.40
2023-04-16T22:52:03.752Z,48.26
2023-04-16T22:54:30.660Z,48.28
2023-04-16T22:56:57.590Z,48.76
2023-04-16T22:59:24.761Z,48.32
2023-04-16T23:01:52.123Z,48.61
2023-04-16T23:04:18.825Z,48.63
2023-04-16T23:06:46.128Z,48.71
2023-04-16T23:09:12.689Z,48.28
2023-04-16T23:11:39.298Z,48.42
2023-04-16T23:14:05.892Z,48.25
2023-04-16T23:16:32.474Z,48.23
2023-04-16T23:18:59.081Z,48.26
2023-04-16T23:21:25.860Z,48.63
2023-04-16T23:23:52.222Z,48.20
2023-04-16T23:26:18.702Z,48.61
2023-04-16T23:28:45.383Z,48.36
2023-04-16T23:31:11.747Z,48.17
2023-04-16T23:33:38.472Z,48.10
2023-04-16T23:36:05.146Z,48.37
2023-04-16T23:38:31.630Z,48.58
2023-04-16T23:40:58.237Z,48.20
2023-04-16T23:43:24.749Z,47.96
2023-04-16T23:45:52.941Z,48.74
2023-04-16T23:48:19.285Z,48.36
2023-04-16T23:50:45.662Z,48.19
2023-04-16T23:53:12.589Z,48.24
2023-04-16T23:55:39.310Z,48.58
2023-04-16T23:58:05.760Z,48.52
